Airfield :
LOGIN :

Register | Disclaimer

   EN    FR    IT 

 










Legend :    VFR   Marginal VFR   IFR   Intensive IFR   Very Intensive IFR
Visi :
Ceiling :
>= 8 km
>= 3000ft
5 to 8 km
1000 to 3000 ft
1500m to 5 km
500 to 1000 ft
800 to 1500m
200 to 500 ft
< 800m
< 200 ft
Symbols :   Thunderstorms  Fog  Heavy snow  Heavy precipitations  Wind > 20 kt
SIGMETs :     Misc.  Thunderstorms  Icing  Turbulence  Mountain Waves  Volcanic Ashes






- Airport Elevation : 416 ft
- IATA code : OVD


LEAS - Asturias

CURRENT METAR :
  • 202000Z 21004KT 8000 RA FEW009 SCT070 14/14 Q0994 TEMPO 3000

EXPIRED METARs :
  • 201930Z 21003KT 9000 RA FEW056 SCT070 14/14 Q0994 TEMPO 3000
  • 201900Z 16003KT 100V210 9000 -RA SCT070 14/14 Q0995 TEMPO 3000 RA
  • 201830Z 15004KT 110V190 9000 -RA FEW070 15/14 Q0995 TEMPO 3000 RA
  • 201800Z 15003KT 090V180 9999 -RA FEW080 15/14 Q0995 RERA TEMPO 3000 RA
  • 201730Z VRB02KT 9000 -RA SCT075 15/14 Q0995 TEMPO 3000 RA

TAF TAF LEAS
Valid from the 20 at 15:00 until the 21 at 15:00 UTC


201400Z 2015/2115 15006KT 9999 SCT060 TX18/2015Z TN13/2103Z
TEMPO 2015/2104 3000 RA BKN010



MET'MAP, your aeronautical weather chart ! - Copyright ORBIFLY December 2007 - Disclaimer

ORBIFLY MET'MAP TEAM :

Programming & Development : Alexandra Zaïnal
Concept & original design : Baudouin d'Aumeries
Assistance for programming : Marc-Olivier Méhu
Technical & hardware support : Manuel Goepfert

Contact : metmap@orbifly.com




SOURCES & CREDITS :

   NOAA